createdAt,value
2022-08-28T00:00:25.000Z,97639
2022-08-28T00:01:51.000Z,97639
2022-08-28T00:03:58.000Z,97637
2022-08-28T00:05:24.000Z,97632
2022-08-28T00:07:30.000Z,97635
2022-08-28T00:08:57.000Z,97634
2022-08-28T00:11:03.000Z,97636
2022-08-28T00:12:29.000Z,97636
2022-08-28T00:14:35.000Z,97633
2022-08-28T00:16:02.000Z,97631
2022-08-28T00:18:08.000Z,97632
2022-08-28T00:19:35.000Z,97632
2022-08-28T00:21:44.000Z,97631
2022-08-28T00:23:11.000Z,97631
2022-08-28T00:25:17.000Z,97633
2022-08-28T00:26:44.000Z,97635
2022-08-28T00:28:50.000Z,97634
2022-08-28T00:30:16.000Z,97634
2022-08-28T00:32:22.000Z,97634
2022-08-28T00:35:14.000Z,97637
2022-08-28T00:36:40.000Z,97636
2022-08-28T00:38:46.000Z,97639
2022-08-28T00:40:13.000Z,97640
2022-08-28T00:42:19.000Z,97641
2022-08-28T00:43:46.000Z,97642
2022-08-28T00:45:52.000Z,97638
2022-08-28T00:47:18.000Z,97637
2022-08-28T00:49:25.000Z,97637
2022-08-28T00:50:51.000Z,97637
2022-08-28T00:52:57.000Z,97633
2022-08-28T00:54:24.000Z,97637
2022-08-28T00:56:30.000Z,97636
2022-08-28T00:57:56.000Z,97636
2022-08-28T01:00:02.000Z,97640
2022-08-28T01:01:29.000Z,97641
2022-08-28T01:03:35.000Z,97638
2022-08-28T01:05:02.000Z,97640
2022-08-28T01:07:08.000Z,97636
2022-08-28T01:08:34.000Z,97638
2022-08-28T01:10:41.000Z,97639
2022-08-28T01:13:32.000Z,97639
2022-08-28T01:14:58.000Z,97641
2022-08-28T01:17:05.000Z,97645
2022-08-28T01:18:31.000Z,97640
2022-08-28T01:20:37.000Z,97639
2022-08-28T01:22:04.000Z,97643
2022-08-28T01:24:10.000Z,97645
2022-08-28T01:25:36.000Z,97647
2022-08-28T01:27:42.000Z,97646
2022-08-28T01:29:09.000Z,97645
2022-08-28T01:31:15.000Z,97642
2022-08-28T01:32:42.000Z,97642
2022-08-28T01:34:48.000Z,97642
2022-08-28T01:36:14.000Z,97640
2022-08-28T01:38:20.000Z,97637
2022-08-28T01:39:53.000Z,97640
2022-08-28T01:41:59.000Z,97636
2022-08-28T01:43:26.000Z,97641
2022-08-28T01:45:32.000Z,97641
2022-08-28T01:46:58.000Z,97637
2022-08-28T01:49:04.000Z,97639
2022-08-28T01:51:55.000Z,97641
2022-08-28T01:53:23.000Z,97638
2022-08-28T01:55:30.000Z,97638
2022-08-28T01:56:57.000Z,97638
2022-08-28T01:59:03.000Z,97637
2022-08-28T02:00:30.000Z,97638
2022-08-28T02:02:36.000Z,97636
2022-08-28T02:04:02.000Z,97638
2022-08-28T02:06:09.000Z,97641
2022-08-28T02:07:35.000Z,97642
2022-08-28T02:09:41.000Z,97645
2022-08-28T02:11:08.000Z,97646
2022-08-28T02:13:14.000Z,97648
2022-08-28T02:14:41.000Z,97644
2022-08-28T02:16:47.000Z,97644
2022-08-28T02:18:13.000Z,97645
2022-08-28T02:20:20.000Z,97643
2022-08-28T02:21:47.000Z,97647
2022-08-28T02:23:53.000Z,97649
2022-08-28T02:25:19.000Z,97650
2022-08-28T02:27:25.000Z,97650
2022-08-28T02:30:16.000Z,97652
2022-08-28T02:31:43.000Z,97651
2022-08-28T02:33:49.000Z,97654
2022-08-28T02:35:16.000Z,97656
2022-08-28T02:37:22.000Z,97655
2022-08-28T02:38:48.000Z,97654
2022-08-28T02:40:54.000Z,97655
2022-08-28T02:42:21.000Z,97651
2022-08-28T02:44:27.000Z,97651
2022-08-28T02:45:54.000Z,97654
2022-08-28T02:48:00.000Z,97652
2022-08-28T02:49:26.000Z,97656
2022-08-28T02:51:38.000Z,97656
2022-08-28T02:53:05.000Z,97653
2022-08-28T02:55:11.000Z,97650
2022-08-28T02:56:38.000Z,97649
2022-08-28T02:58:44.000Z,97651
2022-08-28T03:00:10.000Z,97648
2022-08-28T03:02:16.000Z,97652
2022-08-28T03:03:43.000Z,97652
2022-08-28T03:05:49.000Z,97649
2022-08-28T03:08:40.000Z,97647
2022-08-28T03:10:07.000Z,97649
2022-08-28T03:12:13.000Z,97649
2022-08-28T03:13:40.000Z,97650
2022-08-28T03:15:46.000Z,97649
2022-08-28T03:17:18.000Z,97649
2022-08-28T03:19:24.000Z,97647
2022-08-28T03:20:52.000Z,97646
2022-08-28T03:22:58.000Z,97643
2022-08-28T03:24:25.000Z,97648
2022-08-28T03:26:31.000Z,97651
2022-08-28T03:27:57.000Z,97649
2022-08-28T03:30:03.000Z,97650
2022-08-28T03:31:30.000Z,97647
2022-08-28T03:33:36.000Z,97653
2022-08-28T03:35:02.000Z,97654
2022-08-28T03:37:08.000Z,97653
2022-08-28T03:38:36.000Z,97650
2022-08-28T03:40:42.000Z,97652
2022-08-28T03:42:08.000Z,97650
2022-08-28T03:44:18.000Z,97651
2022-08-28T03:47:09.000Z,97657
2022-08-28T03:48:36.000Z,97656
2022-08-28T03:50:42.000Z,97655
2022-08-28T03:52:10.000Z,97653
2022-08-28T03:54:16.000Z,97652
2022-08-28T03:55:42.000Z,97658
2022-08-28T03:57:48.000Z,97656
2022-08-28T03:59:15.000Z,97659
2022-08-28T04:01:21.000Z,97660
2022-08-28T04:02:48.000Z,97659
2022-08-28T04:04:54.000Z,97659
2022-08-28T04:06:20.000Z,97661
2022-08-28T04:08:26.000Z,97658
2022-08-28T04:09:53.000Z,97659
2022-08-28T04:11:59.000Z,97661
2022-08-28T04:13:25.000Z,97659
2022-08-28T04:15:31.000Z,97663
2022-08-28T04:16:58.000Z,97665
2022-08-28T04:19:07.000Z,97665
2022-08-28T04:20:34.000Z,97664
2022-08-28T04:22:40.000Z,97668
2022-08-28T04:25:31.000Z,97669
2022-08-28T04:26:58.000Z,97667
2022-08-28T04:29:04.000Z,97664
2022-08-28T04:30:30.000Z,97666
2022-08-28T04:32:36.000Z,97667
2022-08-28T04:34:03.000Z,97667
2022-08-28T04:36:09.000Z,97667
2022-08-28T04:37:37.000Z,97663
2022-08-28T04:39:43.000Z,97668
2022-08-28T04:41:10.000Z,97667
2022-08-28T04:43:16.000Z,97668
2022-08-28T04:44:43.000Z,97666
2022-08-28T04:46:49.000Z,97667
2022-08-28T04:48:15.000Z,97671
2022-08-28T04:50:22.000Z,97677
2022-08-28T04:51:48.000Z,97676
2022-08-28T04:53:54.000Z,97673
2022-08-28T04:55:21.000Z,97674
2022-08-28T04:58:01.000Z,97678
2022-08-28T04:59:27.000Z,97682
2022-08-28T05:01:33.000Z,97679
2022-08-28T05:04:24.000Z,97685
2022-08-28T05:05:51.000Z,97683
2022-08-28T05:07:57.000Z,97688
2022-08-28T05:09:24.000Z,97683
2022-08-28T05:11:30.000Z,97686
2022-08-28T05:13:01.000Z,97687
2022-08-28T05:15:07.000Z,97686
2022-08-28T05:16:34.000Z,97687
2022-08-28T05:18:40.000Z,97689
2022-08-28T05:20:07.000Z,97686
2022-08-28T05:22:13.000Z,97687
2022-08-28T05:23:40.000Z,97691
2022-08-28T05:25:46.000Z,97693
2022-08-28T05:27:12.000Z,97697
2022-08-28T05:29:18.000Z,97700
2022-08-28T05:30:45.000Z,97700
2022-08-28T05:32:51.000Z,97701
2022-08-28T05:34:17.000Z,97701
2022-08-28T05:36:24.000Z,97703
2022-08-28T05:37:58.000Z,97705
2022-08-28T05:40:04.000Z,97705
2022-08-28T05:42:56.000Z,97712
2022-08-28T05:44:22.000Z,97712
2022-08-28T05:46:28.000Z,97717
2022-08-28T05:47:55.000Z,97716
2022-08-28T05:50:01.000Z,97721
2022-08-28T05:51:27.000Z,97720
2022-08-28T05:53:33.000Z,97719
2022-08-28T05:55:00.000Z,97726
2022-08-28T05:57:06.000Z,97727
2022-08-28T05:58:32.000Z,97731
2022-08-28T06:00:39.000Z,97732
2022-08-28T06:02:05.000Z,97730
2022-08-28T06:04:12.000Z,97732
2022-08-28T06:05:38.000Z,97728
2022-08-28T06:07:44.000Z,97736
2022-08-28T06:09:11.000Z,97735
2022-08-28T06:11:17.000Z,97736
2022-08-28T06:12:47.000Z,97739
2022-08-28T06:14:53.000Z,97735
2022-08-28T06:16:21.000Z,97737
2022-08-28T06:18:27.000Z,97735
2022-08-28T06:21:19.000Z,97741
2022-08-28T06:22:45.000Z,97741
2022-08-28T06:24:51.000Z,97742
2022-08-28T06:26:18.000Z,97743
2022-08-28T06:28:24.000Z,97740
2022-08-28T06:29:50.000Z,97742
2022-08-28T06:31:56.000Z,97739
2022-08-28T06:33:23.000Z,97738
2022-08-28T06:35:29.000Z,97741
2022-08-28T06:36:56.000Z,97740
2022-08-28T06:39:02.000Z,97742
2022-08-28T06:40:28.000Z,97744
2022-08-28T06:42:35.000Z,97743
2022-08-28T06:44:01.000Z,97747
2022-08-28T06:46:07.000Z,97747
2022-08-28T06:47:34.000Z,97744
2022-08-28T06:49:40.000Z,97746
2022-08-28T06:51:07.000Z,97748
2022-08-28T06:53:13.000Z,97743
2022-08-28T06:54:40.000Z,97746
2022-08-28T06:56:51.000Z,97742
2022-08-28T06:59:42.000Z,97744
2022-08-28T07:01:09.000Z,97744
2022-08-28T07:03:15.000Z,97741
2022-08-28T07:04:44.000Z,97741
2022-08-28T07:06:50.000Z,97745
2022-08-28T07:08:20.000Z,97744
2022-08-28T07:10:27.000Z,97743
2022-08-28T07:11:53.000Z,97748
2022-08-28T07:13:59.000Z,97747
2022-08-28T07:15:26.000Z,97748
2022-08-28T07:17:32.000Z,97746
2022-08-28T07:18:58.000Z,97747
2022-08-28T07:21:05.000Z,97747
2022-08-28T07:22:38.000Z,97746
2022-08-28T07:24:44.000Z,97752
2022-08-28T07:26:10.000Z,97750
2022-08-28T07:28:16.000Z,97744
2022-08-28T07:29:43.000Z,97747
2022-08-28T07:31:49.000Z,97746
2022-08-28T07:33:16.000Z,97740
2022-08-28T07:35:22.000Z,97744
2022-08-28T07:38:13.000Z,97749
2022-08-28T07:39:40.000Z,97751
2022-08-28T07:41:46.000Z,97754
2022-08-28T07:43:12.000Z,97753
2022-08-28T07:45:18.000Z,97760
2022-08-28T07:46:45.000Z,97759
2022-08-28T07:48:51.000Z,97764
2022-08-28T07:50:17.000Z,97763
2022-08-28T07:52:23.000Z,97766
2022-08-28T07:53:50.000Z,97769
2022-08-28T07:55:56.000Z,97765
2022-08-28T07:57:22.000Z,97771
2022-08-28T07:59:29.000Z,97763
2022-08-28T08:01:03.000Z,97764
2022-08-28T08:04:42.000Z,97768
2022-08-28T08:06:36.000Z,97771
2022-08-28T08:08:02.000Z,97773
2022-08-28T08:10:08.000Z,97777
2022-08-28T08:11:35.000Z,97777
2022-08-28T08:13:41.000Z,97774
2022-08-28T08:15:08.000Z,97777
2022-08-28T08:17:14.000Z,97781
2022-08-28T08:18:40.000Z,97778
2022-08-28T08:20:47.000Z,97782
2022-08-28T08:22:13.000Z,97783
2022-08-28T08:24:19.000Z,97780
2022-08-28T08:25:46.000Z,97787
2022-08-28T08:27:52.000Z,97789
2022-08-28T08:29:19.000Z,97787
2022-08-28T08:31:25.000Z,97790
2022-08-28T08:32:51.000Z,97790
2022-08-28T08:35:00.000Z,97792
2022-08-28T08:36:27.000Z,97794
2022-08-28T08:38:33.000Z,97790
2022-08-28T08:39:59.000Z,97791
2022-08-28T08:42:06.000Z,97792
2022-08-28T08:44:57.000Z,97787
2022-08-28T08:46:23.000Z,97789
2022-08-28T08:48:30.000Z,97790
2022-08-28T08:49:56.000Z,97791
2022-08-28T08:52:02.000Z,97789
2022-08-28T08:53:29.000Z,97792
2022-08-28T08:55:35.000Z,97794
2022-08-28T08:57:02.000Z,97794
2022-08-28T08:59:08.000Z,97796
2022-08-28T09:00:34.000Z,97798
2022-08-28T09:02:40.000Z,97800
2022-08-28T09:04:07.000Z,97802
2022-08-28T09:06:13.000Z,97810
2022-08-28T09:07:40.000Z,97810
2022-08-28T09:09:46.000Z,97817
2022-08-28T09:11:12.000Z,97812
2022-08-28T09:13:19.000Z,97808
2022-08-28T09:14:45.000Z,97806
2022-08-28T09:16:51.000Z,97809
2022-08-28T09:18:18.000Z,97809
2022-08-28T09:20:24.000Z,97813
2022-08-28T09:23:24.000Z,97813
2022-08-28T09:24:50.000Z,97812
2022-08-28T09:26:58.000Z,97810
2022-08-28T09:28:25.000Z,97812
2022-08-28T09:30:31.000Z,97811
2022-08-28T09:31:58.000Z,97804
2022-08-28T09:34:04.000Z,97809
2022-08-28T09:35:30.000Z,97806
2022-08-28T09:37:36.000Z,97806
2022-08-28T09:39:03.000Z,97807
2022-08-28T09:41:09.000Z,97810
2022-08-28T09:42:36.000Z,97806
2022-08-28T09:44:42.000Z,97806
2022-08-28T09:46:08.000Z,97803
2022-08-28T09:48:15.000Z,97799
2022-08-28T09:49:41.000Z,97801
2022-08-28T09:51:47.000Z,97804
2022-08-28T09:53:14.000Z,97803
2022-08-28T09:55:20.000Z,97801
2022-08-28T09:56:46.000Z,97806
2022-08-28T09:58:53.000Z,97804
2022-08-28T10:01:44.000Z,97809
2022-08-28T10:03:11.000Z,97809
2022-08-28T10:05:17.000Z,97805
2022-08-28T10:06:50.000Z,97810
2022-08-28T10:08:56.000Z,97808
2022-08-28T10:10:23.000Z,97803
2022-08-28T10:12:29.000Z,97800
2022-08-28T10:13:55.000Z,97799
2022-08-28T10:16:01.000Z,97798
2022-08-28T10:17:28.000Z,97800
2022-08-28T10:19:34.000Z,97798
2022-08-28T10:21:01.000Z,97805
2022-08-28T10:23:07.000Z,97803
2022-08-28T10:24:34.000Z,97804
2022-08-28T10:26:40.000Z,97800
2022-08-28T10:28:06.000Z,97803
2022-08-28T10:30:13.000Z,97800
2022-08-28T10:31:39.000Z,97801
2022-08-28T10:33:46.000Z,97803
2022-08-28T10:35:12.000Z,97795
2022-08-28T10:37:18.000Z,97800
2022-08-28T10:40:10.000Z,97803
2022-08-28T10:41:36.000Z,97794
2022-08-28T10:43:42.000Z,97790
2022-08-28T10:45:09.000Z,97790
2022-08-28T10:47:15.000Z,97788
2022-08-28T10:48:42.000Z,97783
2022-08-28T10:50:48.000Z,97782
2022-08-28T10:52:14.000Z,97783
2022-08-28T10:54:20.000Z,97789
2022-08-28T10:55:47.000Z,97783
2022-08-28T10:57:53.000Z,97783
2022-08-28T10:59:20.000Z,97785
2022-08-28T11:01:26.000Z,97784
2022-08-28T11:02:52.000Z,97787
2022-08-28T11:04:59.000Z,97781
2022-08-28T11:06:25.000Z,97778
2022-08-28T11:08:32.000Z,97778
2022-08-28T11:09:58.000Z,97782
2022-08-28T11:12:04.000Z,97783
2022-08-28T11:13:31.000Z,97787
2022-08-28T11:15:37.000Z,97781
2022-08-28T11:18:28.000Z,97783
2022-08-28T11:19:55.000Z,97784
2022-08-28T11:22:01.000Z,97779
2022-08-28T11:23:29.000Z,97783
2022-08-28T11:25:35.000Z,97785
2022-08-28T11:27:02.000Z,97786
2022-08-28T11:29:08.000Z,97792
2022-08-28T11:30:35.000Z,97787
2022-08-28T11:32:41.000Z,97787
2022-08-28T11:34:13.000Z,97779
2022-08-28T11:36:19.000Z,97782
2022-08-28T11:37:46.000Z,97780
2022-08-28T11:39:52.000Z,97781
2022-08-28T11:41:18.000Z,97780
2022-08-28T11:43:25.000Z,97785
2022-08-28T11:44:51.000Z,97778
2022-08-28T11:46:57.000Z,97778
2022-08-28T11:48:24.000Z,97775
2022-08-28T11:50:30.000Z,97784
2022-08-28T11:51:56.000Z,97774
2022-08-28T11:54:03.000Z,97771
2022-08-28T11:56:54.000Z,97774
2022-08-28T11:58:21.000Z,97765
2022-08-28T12:00:27.000Z,97761
2022-08-28T12:01:53.000Z,97762
2022-08-28T12:04:00.000Z,97767
2022-08-28T12:05:32.000Z,97766
2022-08-28T12:07:38.000Z,97768
2022-08-28T12:09:05.000Z,97771
2022-08-28T12:11:11.000Z,97772
2022-08-28T12:12:37.000Z,97768
2022-08-28T12:14:44.000Z,97765
2022-08-28T12:16:10.000Z,97766
2022-08-28T12:18:16.000Z,97766
2022-08-28T12:19:43.000Z,97769
2022-08-28T12:22:02.000Z,97764
2022-08-28T12:23:28.000Z,97764
2022-08-28T12:25:34.000Z,97768
2022-08-28T12:27:01.000Z,97768
2022-08-28T12:29:07.000Z,97766
2022-08-28T12:30:34.000Z,97761
2022-08-28T12:32:40.000Z,97763
2022-08-28T12:35:31.000Z,97765
2022-08-28T12:36:58.000Z,97763
2022-08-28T12:39:04.000Z,97765
2022-08-28T12:40:30.000Z,97767
2022-08-28T12:42:37.000Z,97758
2022-08-28T12:44:03.000Z,97758
2022-08-28T12:46:09.000Z,97757
2022-08-28T12:47:46.000Z,97767
2022-08-28T12:49:52.000Z,97768
2022-08-28T12:51:19.000Z,97770
2022-08-28T12:53:25.000Z,97761
2022-08-28T12:54:53.000Z,97763
2022-08-28T12:56:59.000Z,97761
2022-08-28T12:58:25.000Z,97753
2022-08-28T13:00:32.000Z,97758
2022-08-28T13:01:58.000Z,97757
2022-08-28T13:04:04.000Z,97760
2022-08-28T13:05:31.000Z,97757
2022-08-28T13:07:37.000Z,97754
2022-08-28T13:09:06.000Z,97751
2022-08-28T13:11:12.000Z,97749
2022-08-28T13:14:05.000Z,97743
2022-08-28T13:15:32.000Z,97742
2022-08-28T13:17:38.000Z,97737
2022-08-28T13:19:05.000Z,97734
2022-08-28T13:21:11.000Z,97733
2022-08-28T13:22:38.000Z,97730
2022-08-28T13:24:44.000Z,97733
2022-08-28T13:26:10.000Z,97726
2022-08-28T13:28:16.000Z,97726
2022-08-28T13:29:43.000Z,97730
2022-08-28T13:31:49.000Z,97720
2022-08-28T13:33:16.000Z,97722
2022-08-28T13:35:22.000Z,97722
2022-08-28T13:36:48.000Z,97722
2022-08-28T13:38:54.000Z,97714
2022-08-28T13:40:21.000Z,97724
2022-08-28T13:42:59.000Z,97722
2022-08-28T13:44:26.000Z,97722
2022-08-28T13:46:32.000Z,97720
2022-08-28T13:47:59.000Z,97718
2022-08-28T13:50:05.000Z,97720
2022-08-28T13:52:56.000Z,97717
2022-08-28T13:54:22.000Z,97720
2022-08-28T13:56:31.000Z,97712
2022-08-28T13:57:57.000Z,97712
2022-08-28T14:00:04.000Z,97716
2022-08-28T14:01:30.000Z,97719
2022-08-28T14:03:46.000Z,97713
2022-08-28T14:05:12.000Z,97712
2022-08-28T14:07:18.000Z,97716
2022-08-28T14:08:45.000Z,97714
2022-08-28T14:10:51.000Z,97715
2022-08-28T14:12:18.000Z,97714
2022-08-28T14:14:24.000Z,97716
2022-08-28T14:15:50.000Z,97719
2022-08-28T14:17:56.000Z,97718
2022-08-28T14:19:23.000Z,97724
2022-08-28T14:21:29.000Z,97720
2022-08-28T14:22:56.000Z,97720
2022-08-28T14:25:02.000Z,97713
2022-08-28T14:26:29.000Z,97715
2022-08-28T14:28:35.000Z,97715
2022-08-28T14:31:26.000Z,97712
2022-08-28T14:32:53.000Z,97716
2022-08-28T14:34:59.000Z,97711
2022-08-28T14:36:25.000Z,97711
2022-08-28T14:38:32.000Z,97712
2022-08-28T14:39:58.000Z,97712
2022-08-28T14:42:04.000Z,97712
2022-08-28T14:43:39.000Z,97710
2022-08-28T14:45:45.000Z,97708
2022-08-28T14:47:12.000Z,97711
2022-08-28T14:49:18.000Z,97712
2022-08-28T14:50:45.000Z,97711
2022-08-28T14:52:51.000Z,97711
2022-08-28T14:54:17.000Z,97713
2022-08-28T14:56:23.000Z,97711
2022-08-28T14:57:50.000Z,97717
2022-08-28T14:59:57.000Z,97716
2022-08-28T15:01:23.000Z,97715
2022-08-28T15:03:30.000Z,97714
2022-08-28T15:04:57.000Z,97716
2022-08-28T15:07:03.000Z,97715
2022-08-28T15:09:54.000Z,97715
2022-08-28T15:11:21.000Z,97720
2022-08-28T15:13:28.000Z,97713
2022-08-28T15:14:58.000Z,97716
2022-08-28T15:17:04.000Z,97721
2022-08-28T15:18:30.000Z,97723
2022-08-28T15:20:37.000Z,97721
2022-08-28T15:22:03.000Z,97724
2022-08-28T15:24:09.000Z,97725
2022-08-28T15:25:36.000Z,97720
2022-08-28T15:27:42.000Z,97724
2022-08-28T15:29:08.000Z,97723
2022-08-28T15:31:15.000Z,97722
2022-08-28T15:32:41.000Z,97723
2022-08-28T15:34:47.000Z,97726
2022-08-28T15:36:14.000Z,97724
2022-08-28T15:38:20.000Z,97721
2022-08-28T15:39:47.000Z,97721
2022-08-28T15:41:53.000Z,97721
2022-08-28T15:43:19.000Z,97726
2022-08-28T15:45:25.000Z,97726
2022-08-28T15:48:17.000Z,97722
2022-08-28T15:49:43.000Z,97725
2022-08-28T15:51:56.000Z,97720
2022-08-28T15:53:22.000Z,97725
2022-08-28T15:55:29.000Z,97719
2022-08-28T15:56:55.000Z,97721
2022-08-28T15:59:01.000Z,97718
2022-08-28T16:00:28.000Z,97721
2022-08-28T16:02:34.000Z,97720
2022-08-28T16:04:01.000Z,97721
2022-08-28T16:06:07.000Z,97726
2022-08-28T16:07:33.000Z,97723
2022-08-28T16:09:39.000Z,97725
2022-08-28T16:11:06.000Z,97724
2022-08-28T16:13:12.000Z,97727
2022-08-28T16:14:39.000Z,97728
2022-08-28T16:16:45.000Z,97726
2022-08-28T16:18:17.000Z,97729
2022-08-28T16:20:23.000Z,97729
2022-08-28T16:21:50.000Z,97734
2022-08-28T16:23:56.000Z,97729
2022-08-28T16:26:47.000Z,97732
2022-08-28T16:28:14.000Z,97731
2022-08-28T16:30:21.000Z,97732
2022-08-28T16:31:50.000Z,97737
2022-08-28T16:33:57.000Z,97735
2022-08-28T16:35:23.000Z,97735
2022-08-28T16:37:29.000Z,97733
2022-08-28T16:39:06.000Z,97738
2022-08-28T16:41:12.000Z,97741
2022-08-28T16:42:39.000Z,97742
2022-08-28T16:44:45.000Z,97743
2022-08-28T16:46:11.000Z,97744
2022-08-28T16:48:18.000Z,97744
2022-08-28T16:49:44.000Z,97745
2022-08-28T16:51:50.000Z,97747
2022-08-28T16:53:17.000Z,97745
2022-08-28T16:55:33.000Z,97746
2022-08-28T16:56:59.000Z,97746
2022-08-28T16:59:05.000Z,97749
2022-08-28T17:00:36.000Z,97746
2022-08-28T17:02:58.000Z,97745
2022-08-28T17:05:50.000Z,97750
2022-08-28T17:07:16.000Z,97748
2022-08-28T17:09:22.000Z,97749
2022-08-28T17:10:49.000Z,97748
2022-08-28T17:12:55.000Z,97746
2022-08-28T17:14:21.000Z,97749
2022-08-28T17:16:28.000Z,97752
2022-08-28T17:17:54.000Z,97755
2022-08-28T17:20:00.000Z,97753
2022-08-28T17:21:28.000Z,97751
2022-08-28T17:23:35.000Z,97754
2022-08-28T17:25:03.000Z,97751
2022-08-28T17:27:09.000Z,97757
2022-08-28T17:28:36.000Z,97757
2022-08-28T17:30:42.000Z,97761
2022-08-28T17:32:08.000Z,97764
2022-08-28T17:34:14.000Z,97766
2022-08-28T17:35:46.000Z,97770
2022-08-28T17:37:58.000Z,97768
2022-08-28T17:39:24.000Z,97770
2022-08-28T17:41:30.000Z,97772
2022-08-28T17:44:22.000Z,97772
2022-08-28T17:45:48.000Z,97775
2022-08-28T17:47:54.000Z,97773
2022-08-28T17:49:21.000Z,97775
2022-08-28T17:51:27.000Z,97774
2022-08-28T17:53:10.000Z,97778
2022-08-28T17:55:16.000Z,97777
2022-08-28T17:56:43.000Z,97777
2022-08-28T17:58:49.000Z,97777
2022-08-28T18:00:16.000Z,97780
2022-08-28T18:02:22.000Z,97782
2022-08-28T18:03:49.000Z,97783
2022-08-28T18:05:59.000Z,97784
2022-08-28T18:07:26.000Z,97782
2022-08-28T18:09:32.000Z,97783
2022-08-28T18:10:58.000Z,97788
2022-08-28T18:13:04.000Z,97790
2022-08-28T18:14:31.000Z,97791
2022-08-28T18:16:37.000Z,97797
2022-08-28T18:18:04.000Z,97794
2022-08-28T18:20:10.000Z,97796
2022-08-28T18:23:01.000Z,97802
2022-08-28T18:24:28.000Z,97804
2022-08-28T18:26:37.000Z,97806
2022-08-28T18:28:04.000Z,97808
2022-08-28T18:30:10.000Z,97810
2022-08-28T18:31:37.000Z,97813
2022-08-28T18:33:43.000Z,97816
2022-08-28T18:35:09.000Z,97821
2022-08-28T18:37:16.000Z,97820
2022-08-28T18:38:42.000Z,97819
2022-08-28T18:40:48.000Z,97820
2022-08-28T18:42:15.000Z,97823
2022-08-28T18:44:21.000Z,97827
2022-08-28T18:45:50.000Z,97828
2022-08-28T18:47:56.000Z,97828
2022-08-28T18:49:23.000Z,97829
2022-08-28T18:51:29.000Z,97834
2022-08-28T18:52:56.000Z,97837
2022-08-28T18:55:02.000Z,97840
2022-08-28T18:56:31.000Z,97841
2022-08-28T18:58:38.000Z,97842
2022-08-28T19:01:30.000Z,97843
2022-08-28T19:02:56.000Z,97846
2022-08-28T19:05:03.000Z,97843
2022-08-28T19:06:29.000Z,97846
2022-08-28T19:08:35.000Z,97852
2022-08-28T19:10:02.000Z,97855
2022-08-28T19:12:08.000Z,97858
2022-08-28T19:13:34.000Z,97858
2022-08-28T19:15:40.000Z,97863
2022-08-28T19:17:07.000Z,97871
2022-08-28T19:19:13.000Z,97869
2022-08-28T19:20:40.000Z,97870
2022-08-28T19:22:46.000Z,97873
2022-08-28T19:24:12.000Z,97872
2022-08-28T19:26:19.000Z,97872
2022-08-28T19:27:45.000Z,97872
2022-08-28T19:29:54.000Z,97876
2022-08-28T19:31:21.000Z,97877
2022-08-28T19:33:27.000Z,97879
2022-08-28T19:34:53.000Z,97879
2022-08-28T19:37:00.000Z,97883
2022-08-28T19:39:51.000Z,97884
2022-08-28T19:41:22.000Z,97886
2022-08-28T19:43:29.000Z,97892
2022-08-28T19:45:09.000Z,97897
2022-08-28T19:47:16.000Z,97895
2022-08-28T19:48:42.000Z,97899
2022-08-28T19:50:48.000Z,97899
2022-08-28T19:52:15.000Z,97902
2022-08-28T19:54:21.000Z,97908
2022-08-28T19:55:47.000Z,97904
2022-08-28T19:57:53.000Z,97912
2022-08-28T19:59:20.000Z,97914
2022-08-28T20:01:32.000Z,97916
2022-08-28T20:02:59.000Z,97919
2022-08-28T20:05:05.000Z,97924
2022-08-28T20:06:32.000Z,97928
2022-08-28T20:08:38.000Z,97933
2022-08-28T20:10:05.000Z,97934
2022-08-28T20:12:11.000Z,97934
2022-08-28T20:13:37.000Z,97936
2022-08-28T20:15:43.000Z,97935
2022-08-28T20:18:34.000Z,97935
2022-08-28T20:20:01.000Z,97932
2022-08-28T20:22:09.000Z,97933
2022-08-28T20:23:36.000Z,97932
2022-08-28T20:25:42.000Z,97931
2022-08-28T20:27:08.000Z,97930
2022-08-28T20:29:14.000Z,97931
2022-08-28T20:30:41.000Z,97934
2022-08-28T20:32:47.000Z,97934
2022-08-28T20:34:14.000Z,97932
2022-08-28T20:36:20.000Z,97936
2022-08-28T20:37:47.000Z,97942
2022-08-28T20:39:54.000Z,97944
2022-08-28T20:41:20.000Z,97948
2022-08-28T20:43:26.000Z,97950
2022-08-28T20:44:53.000Z,97953
2022-08-28T20:46:59.000Z,97954
2022-08-28T20:48:25.000Z,97951
2022-08-28T20:50:31.000Z,97949
2022-08-28T20:51:58.000Z,97949
2022-08-28T20:54:04.000Z,97951
2022-08-28T20:56:55.000Z,97957
2022-08-28T20:58:22.000Z,97956
2022-08-28T21:00:28.000Z,97956
2022-08-28T21:01:54.000Z,97957
2022-08-28T21:04:01.000Z,97956
2022-08-28T21:05:27.000Z,97961
2022-08-28T21:07:34.000Z,97964
2022-08-28T21:09:00.000Z,97964
2022-08-28T21:11:06.000Z,97962
2022-08-28T21:12:33.000Z,97960
2022-08-28T21:14:39.000Z,97963
2022-08-28T21:16:05.000Z,97965
2022-08-28T21:18:11.000Z,97964
2022-08-28T21:19:39.000Z,97966
2022-08-28T21:21:46.000Z,97970
2022-08-28T21:23:13.000Z,97968
2022-08-28T21:25:19.000Z,97968
2022-08-28T21:26:46.000Z,97968
2022-08-28T21:28:52.000Z,97972
2022-08-28T21:30:19.000Z,97970
2022-08-28T21:32:25.000Z,97970
2022-08-28T21:35:16.000Z,97978
2022-08-28T21:36:43.000Z,97977
2022-08-28T21:38:55.000Z,97974
2022-08-28T21:40:21.000Z,97974
2022-08-28T21:42:28.000Z,97977
2022-08-28T21:43:54.000Z,97978
2022-08-28T21:46:00.000Z,97978
2022-08-28T21:47:27.000Z,97977
2022-08-28T21:49:33.000Z,97977
2022-08-28T21:51:01.000Z,97975
2022-08-28T21:53:10.000Z,97979
2022-08-28T21:54:37.000Z,97986
2022-08-28T21:56:43.000Z,97981
2022-08-28T21:58:09.000Z,97986
2022-08-28T22:00:17.000Z,97989
2022-08-28T22:01:44.000Z,97989
2022-08-28T22:03:50.000Z,97992
2022-08-28T22:05:17.000Z,97991
2022-08-28T22:07:23.000Z,97991
2022-08-28T22:08:49.000Z,97994
2022-08-28T22:10:56.000Z,97998
2022-08-28T22:13:47.000Z,97998
2022-08-28T22:15:13.000Z,98001
2022-08-28T22:17:20.000Z,97999
2022-08-28T22:18:46.000Z,97999
2022-08-28T22:20:52.000Z,97998
2022-08-28T22:22:19.000Z,97997
2022-08-28T22:24:25.000Z,97998
2022-08-28T22:25:51.000Z,97997
2022-08-28T22:27:57.000Z,98000
2022-08-28T22:29:24.000Z,98002
2022-08-28T22:31:30.000Z,98001
2022-08-28T22:32:56.000Z,98000
2022-08-28T22:35:02.000Z,98001
2022-08-28T22:36:29.000Z,98000
2022-08-28T22:38:35.000Z,98005
2022-08-28T22:40:01.000Z,98005
2022-08-28T22:42:15.000Z,98005
2022-08-28T22:43:41.000Z,98007
2022-08-28T22:45:47.000Z,98007
2022-08-28T22:47:14.000Z,98004
2022-08-28T22:49:20.000Z,98006
2022-08-28T22:52:11.000Z,98008
2022-08-28T22:53:38.000Z,98010
2022-08-28T22:55:44.000Z,98008
2022-08-28T22:57:10.000Z,98007
2022-08-28T22:59:16.000Z,98010
2022-08-28T23:00:43.000Z,98007
2022-08-28T23:02:49.000Z,98009
2022-08-28T23:04:16.000Z,98011
2022-08-28T23:06:22.000Z,98013
2022-08-28T23:07:48.000Z,98013
2022-08-28T23:09:54.000Z,98015
2022-08-28T23:11:21.000Z,98015
2022-08-28T23:13:27.000Z,98012
2022-08-28T23:14:54.000Z,98014
2022-08-28T23:17:00.000Z,98010
2022-08-28T23:18:27.000Z,98008
2022-08-28T23:20:33.000Z,98008
2022-08-28T23:22:01.000Z,98009
2022-08-28T23:24:07.000Z,98006
2022-08-28T23:25:34.000Z,98008
2022-08-28T23:27:40.000Z,98005
2022-08-28T23:30:31.000Z,98009
2022-08-28T23:31:58.000Z,98002
2022-08-28T23:34:04.000Z,98003
2022-08-28T23:35:31.000Z,98002